Terminal Aerodrome Forecast
Issued by NWS Mobile, AL

Home | Current Version | Previous Version | Text Only | Print | Product List | Glossary On
Versions: 1 2 3 4 5 6 7 8 9 10 11 12 13 14 15 16 17 18 19 20 21 22 23 24 25 26 27
000
FTUS44 KMOB 280525
TAFMOB
TAF
KMOB 280525Z 2806/2906 16010KT P6SM OVC005
      TEMPO 2809/2813 2SM BR OVC004
     FM281500 16012KT P6SM BKN020
     FM281800 17016G23KT P6SM OVC015=

USA.gov is the U.S. government's official web portal to all federal, state and local government web resources and services.